Spokane International Airport
KGEG : now visible

Airfield :











YOU CAN JOIN US ON...

 
LOGIN :

Register | Disclaimer

   EN    FR    IT 

 









Legend :    VFR   Marginal VFR   IFR   Intensive IFR   Very Intensive IFR
Visi :
Ceiling :
>= 8 km
>= 3000ft
5 to 8 km
1000 to 3000 ft
1500m to 5 km
500 to 1000 ft
800 to 1500m
200 to 500 ft
< 800m
< 200 ft
Symbols :   Thunderstorms  Fog  Heavy snow  Heavy precipitations  Wind > 20 kt






- Airport Elevation : 2376 ft
- IATA code : GEG


KGEG - Spokane International

CURRENT METAR :
  • 220453Z 16005KT 10SM FEW029 FEW080 OVC100 01/M01 A2988 RMK AO2 SLP136 T00061006

EXPIRED METARs :
  • 220353Z 17006KT 10SM FEW002 FEW025 FEW140 01/M01 A2986 RMK AO2 SLP129 T00111006
  • 220314Z 17005KT 10SM SCT009 SCT140 02/M01 A2985 RMK AO2 T00171006
  • 220253Z 19006KT 10SM FEW002 OVC009 02/M01 A2985 RMK AO2 SLP127 T00171006 53015

TAF KGEG
Valid from the 22 at 06:00 until the 23 at 06:00 UTC


220528Z 2206/2306 17006KT P6SM SCT020 OVC080
FM221300 20009KT 5SM BR SCT003 OVC007
FM222100 18006KT 6SM -SNRA BKN006 OVC010
FM230100 16006KT 2SM -RA BR OVC007



MET'MAP, your aeronautical weather chart ! - Copyright ORBIFLY December 2007 - Disclaimer

ORBIFLY MET'MAP TEAM :

Programming & Development : Alexandra Zaïnal
Concept & original design : Baudouin d'Aumeries
Assistance for programming : Marc-Olivier Méhu
Technical & hardware support : Manuel Goepfert

Contact : metmap@orbifly.com




SOURCES & CREDITS :

   NOAA       Earth
Advisory